Emre Tufan

Olheiro - Fenerbahce
9 Dez 2027
Quinta-feira
Processo

Personalidade

Adaptabilidade (9) Ambição (2) Controvérsia (4) Lealdade (8) Pressão (2) Profissionalismo (2) Espírito Esportivo (5) Temperamento (14)

Perfil

Estilo de Treinamento Democrático
Licença Continental C
Determinação 6
Gestão de Pessoas 16
Motivação 11
Disciplina 12
Satisfação no Trabalho
100%
Fadiga
0%
Função Olheiro
Salário 34.7K p/s
Contrato 14.03.2030

Desempenho

Comportamento Bom
Eficácia do Treinamento
45%
Desenvolvimento do Jogador
30%
Prevenção de Lesões
65%
Implementação Tática
50%

Eventos Recentes

Participou de uma reunião de recrutamento 7d atrás
Participou de uma reunião de recrutamento 14d atrás
Participou de uma reunião de recrutamento 21d atrás
Participou de uma reunião de recrutamento 28d atrás
Participou de uma reunião de recrutamento 35d atrás
Participou de uma reunião de recrutamento 42d atrás
Participou de uma reunião de recrutamento 49d atrás
Participou de uma reunião de recrutamento 56d atrás

Monitorando agora

68
Jogador Clube Status Habilidade Confiança Observado Última observação Último voto
Alessandro Buongiorno Sassuolo Ativo 156 / 161 40% 5 17.08.2027 -
Carlos Augusto Inter Ativo 145 / 155 40% 1 17.08.2027 -
Bilal Bayazıt Kayserispor Perdido 130 / 131 69% 1 16.08.2027 -
Manu Koné AS Roma Ativo 163 / 158 40% 3 31.05.2027 -
Nico O'Reilly Manchester City Ativo 156 / 163 40% 1 31.05.2027 -
Antonee Robinson Fulham Ativo 152 / 147 40% 1 31.05.2027 -
Curtis Jones Inter Ativo 164 / 154 40% 8 30.05.2027 -
Rico Lewis Manchester City Ativo 155 / 151 40% 5 30.05.2027 -
Boubacar Kamara Aston Villa Ativo 175 / 170 40% 1 30.05.2027 -
Jake O'Brien Everton Ativo 141 / 151 40% 4 29.05.2027 -
Yehor Yarmoliuk Brentford Ativo 140 / 144 40% 5 29.05.2027 -
Nathan Collins Brentford Ativo 136 / 145 40% 8 28.05.2027 -
Noah Sadiki Sunderland Ativo 143 / 149 40% 4 28.05.2027 -
James Garner Everton Ativo 156 / 147 40% 7 27.05.2027 -
Ousmane Diomande Nottingham Forest Ativo 164 / 162 40% 3 27.05.2027 -
Welington Southampton Ativo 125 / 131 40% 2 27.05.2027 -
Matthijs de Ligt Manchester United Ativo 152 / 157 40% 7 26.05.2027 -
Bobby Thomas Coventry City Ativo 129 / 129 40% 1 25.05.2027 -
Quinten Timber Crystal Palace Ativo 146 / 146 40% 4 24.05.2027 -
Tariq Lamptey Queens Park Rangers Ativo 144 / 134 40% 1 24.05.2027 -
Matt O'Riley Brighton Ativo 158 / 148 40% 1 24.05.2027 -
Romano Schmid Frosinone Ativo 142 / 135 40% 1 24.05.2027 -
Jacob Greaves Ipswich Town Ativo 146 / 142 40% 1 23.05.2027 -
Florentino Luís Ipswich Town Ativo 149 / 135 40% 5 22.05.2027 -
Lewis Ferguson Bologna Ativo 138 / 141 40% 5 21.05.2027 -
Leif Davis Ipswich Town Ativo 146 / 130 40% 2 21.05.2027 -
Habib Diarra Sunderland Ativo 135 / 137 40% 2 21.05.2027 -
Aaron Hickey Brentford Ativo 135 / 141 40% 2 18.05.2027 -
Murillo Nottingham Forest Ativo 163 / 157 40% 1 18.05.2027 -
Luís Henrique Inter Ativo 133 / 146 40% 2 15.05.2027 -
Adam Wharton Crystal Palace Ativo 153 / 163 40% 4 15.05.2027 -
Juanlu Bournemouth Ativo 141 / 150 40% 3 10.05.2027 -
Dango Ouattara Brentford Ativo 141 / 137 40% 2 09.05.2027 -
Borja Sainz Fiorentina Ativo 160 / 137 40% 1 09.05.2027 -
Shea Charles Southampton Ativo 127 / 139 40% 4 08.05.2027 -
Adrien Truffert Bournemouth Ativo 161 / 156 40% 2 06.05.2027 -
Nicolò Rovella Lazio Ativo 149 / 150 40% 2 06.05.2027 -
Mats Wieffer Brighton Ativo 144 / 149 40% 5 05.05.2027 -
Malo Gusto Chelsea Ativo 156 / 151 40% 2 01.05.2027 -
Nuno Tavares Lazio Ativo 148 / 154 40% 2 30.04.2027 -
Wesley Fofana Chelsea Ativo 166 / 168 40% 1 27.04.2027 -
Pedro Porro Tottenham Ativo 155 / 144 40% 1 24.04.2027 -
Tino Livramento Newcastle United Ativo 159 / 154 40% 1 20.04.2027 -
Ethan Galbraith Swansea City Ativo 123 / 128 40% 3 19.04.2027 -
Soungoutou Magassa West Ham United Ativo 140 / 146 40% 1 19.04.2027 -
Ryan Sessegnon Fulham Ativo 155 / 144 40% 2 18.04.2027 -
Óscar Mingueza Crystal Palace Ativo 149 / 143 40% 6 17.04.2027 -
Carlos Vicente Birmingham Ativo 156 / 145 40% 1 15.04.2027 -
Jarrad Branthwaite Everton Ativo 152 / 162 40% 1 10.04.2027 -
Giacomo Raspadori Atalanta Ativo 148 / 151 40% 2 06.04.2027 -
Georginio Rutter Brighton Ativo 156 / 154 40% 3 30.12.2026 -
Themba Ngcobo SuperSport United Ativo 119 / 109 40% 3 30.12.2026 -
Callum Hudson-Odoi Nottingham Forest Ativo 150 / 157 40% 3 28.12.2026 -
Razvan Balasa Crvena Zvezda Ativo 152 / 143 40% 2 26.12.2026 -
Tom Cannon Sheffield United Ativo 131 / 132 40% 2 24.12.2026 -
Thiago Brentford Ativo 157 / 148 40% 1 23.12.2026 -
Etiosa Ighodaro Kaizer Chiefs Ativo 107 / 108 40% 1 22.12.2026 -
Nico González Newcastle United Ativo 156 / 167 40% 2 21.12.2026 -
Yeremy Pino Crystal Palace Ativo 147 / 157 40% 1 21.12.2026 -
Mason Mount Manchester United Ativo 166 / 144 40% 1 19.12.2026 -
Kevin Fulham Ativo 150 / 154 40% 1 19.12.2026 -
Noni Madueke Arsenal Ativo 152 / 149 40% 1 17.12.2026 -
Gonzalo Fulham Ativo 149 / 143 40% 1 14.12.2026 -
Yousef Salech Cardiff City Ativo 119 / 125 40% 1 10.12.2026 -
Mandla Mahlangu Ajax Cape Town Ativo 111 / 103 40% 1 10.12.2026 -
Hector Ramirez Newcastle United Ativo 160 / 146 40% 1 08.12.2026 -
Junnosuke Suzuki FC Copenhagen Ativo 126 / 141 40% 1 10.08.2026 -
Samú Al-Nassr Ativo 135 / 156 40% 1 03.08.2026 -